createdAt,value
2017-12-06T00:01:35.987Z,19.25
2017-12-06T00:04:03.452Z,18.65
2017-12-06T00:06:30.923Z,19.95
2017-12-06T00:08:58.364Z,21.00
2017-12-06T00:11:25.842Z,14.70
2017-12-06T00:13:58.833Z,18.25
2017-12-06T00:16:26.330Z,16.85
2017-12-06T00:18:53.786Z,16.75
2017-12-06T00:21:21.840Z,17.33
2017-12-06T00:23:49.311Z,22.45
2017-12-06T00:39:06.795Z,13.55
2017-12-06T00:41:34.253Z,18.83
2017-12-06T00:44:01.717Z,13.57
2017-12-06T00:46:29.160Z,15.43
2017-12-06T00:48:56.634Z,18.25
2017-12-06T00:51:26.016Z,16.60
2017-12-06T00:53:53.616Z,13.93
2017-12-06T00:56:21.830Z,19.95
2017-12-06T00:58:49.319Z,16.10
2017-12-06T01:01:16.774Z,17.00
2017-12-06T01:03:45.407Z,16.70
2017-12-06T01:06:12.891Z,15.23
2017-12-06T01:08:40.338Z,18.12
2017-12-06T01:11:07.804Z,16.00
2017-12-06T01:13:35.754Z,16.25
2017-12-06T01:16:03.225Z,15.07
2017-12-06T01:18:30.684Z,15.70
2017-12-06T01:20:58.151Z,13.75
2017-12-06T01:23:25.707Z,15.20
2017-12-06T01:25:53.188Z,15.10
2017-12-06T01:28:20.611Z,15.38
2017-12-06T01:30:48.861Z,16.80
2017-12-06T01:33:16.352Z,15.00
2017-12-06T01:35:43.808Z,18.65
2017-12-06T01:38:11.267Z,16.27
2017-12-06T01:40:38.737Z,17.08
2017-12-06T01:43:06.234Z,19.12
2017-12-06T01:45:33.716Z,15.65
2017-12-06T01:48:01.192Z,18.15
2017-12-06T01:50:30.332Z,18.60
2017-12-06T01:52:57.877Z,18.33
2017-12-06T01:55:25.323Z,19.10
2017-12-06T01:57:52.784Z,18.92
2017-12-06T02:00:20.994Z,17.62
2017-12-06T02:02:48.452Z,17.58
2017-12-06T02:05:16.692Z,18.90
2017-12-06T02:07:44.152Z,21.42
2017-12-06T02:10:12.197Z,21.15
2017-12-06T02:12:40.423Z,16.02
2017-12-06T02:15:07.873Z,22.37
2017-12-06T02:17:36.104Z,20.73
2017-12-06T02:20:03.653Z,20.85
2017-12-06T02:22:31.170Z,21.30
2017-12-06T02:24:58.609Z,19.80
2017-12-06T02:27:26.274Z,21.52
2017-12-06T02:29:54.495Z,18.73
2017-12-06T02:32:21.990Z,20.58
2017-12-06T02:34:49.980Z,18.58
2017-12-06T02:37:17.482Z,18.75
2017-12-06T02:39:56.743Z,20.85
2017-12-06T02:42:36.733Z,17.77
2017-12-06T02:45:15.999Z,18.48
2017-12-06T02:47:43.456Z,18.20
2017-12-06T02:50:11.973Z,25.00
2017-12-06T02:52:39.440Z,19.77
2017-12-06T02:55:06.917Z,20.65
2017-12-06T02:57:34.389Z,20.77
2017-12-06T03:00:02.218Z,18.08
2017-12-06T03:02:29.700Z,21.20
2017-12-06T03:05:01.213Z,19.40
2017-12-06T03:07:28.673Z,20.17
2017-12-06T03:09:56.133Z,16.40
2017-12-06T03:12:23.616Z,16.62
2017-12-06T03:14:51.055Z,18.02
2017-12-06T03:17:18.519Z,20.60
2017-12-06T03:19:45.984Z,17.75
2017-12-06T03:22:13.469Z,24.92
2017-12-06T03:24:40.942Z,18.67
2017-12-06T03:27:08.467Z,21.73
2017-12-06T03:29:36.091Z,20.67
2017-12-06T03:32:03.583Z,20.88
2017-12-06T03:34:31.046Z,19.20
2017-12-06T03:36:58.491Z,21.80
2017-12-06T03:39:26.305Z,19.92
2017-12-06T03:41:53.741Z,20.60
2017-12-06T03:44:21.200Z,17.35
2017-12-06T03:46:48.661Z,19.45
2017-12-06T03:49:16.872Z,22.95
2017-12-06T03:51:44.385Z,21.62
2017-12-06T03:54:11.852Z,16.65
2017-12-06T03:56:41.202Z,24.80
2017-12-06T03:59:08.660Z,17.48
2017-12-06T04:01:36.128Z,21.92
2017-12-06T04:04:03.677Z,22.83
2017-12-06T04:06:32.509Z,19.30
2017-12-06T04:08:59.932Z,22.05
2017-12-06T04:11:28.195Z,22.35
2017-12-06T04:13:55.688Z,24.77
2017-12-06T04:16:23.976Z,24.83
2017-12-06T04:18:52.220Z,20.05
2017-12-06T04:21:19.670Z,19.70
2017-12-06T04:23:47.144Z,18.20
2017-12-06T04:26:14.608Z,18.98
2017-12-06T04:28:42.940Z,18.75
2017-12-06T04:31:10.394Z,23.25
2017-12-06T04:33:37.861Z,21.27
2017-12-06T04:36:06.066Z,18.20
2017-12-06T04:38:33.524Z,22.10
2017-12-06T04:41:00.968Z,19.87
2017-12-06T04:43:28.494Z,19.02
2017-12-06T04:45:56.103Z,22.37
2017-12-06T04:48:23.564Z,21.85
2017-12-06T04:50:51.042Z,25.27
2017-12-06T04:53:19.316Z,21.05
2017-12-06T04:55:46.781Z,19.20
2017-12-06T04:58:14.358Z,22.80
2017-12-06T05:00:41.831Z,19.98
2017-12-06T05:03:09.295Z,19.85
2017-12-06T05:05:37.520Z,20.12
2017-12-06T05:08:04.961Z,21.60
2017-12-06T05:10:33.201Z,20.20
2017-12-06T05:13:00.678Z,20.88
2017-12-06T05:15:28.237Z,21.77
2017-12-06T05:17:55.682Z,20.00
2017-12-06T05:20:23.891Z,21.17
2017-12-06T05:22:51.366Z,21.45
2017-12-06T05:25:18.807Z,21.77
2017-12-06T05:27:47.052Z,23.45
2017-12-06T05:30:15.076Z,21.42
2017-12-06T05:32:42.596Z,18.92
2017-12-06T05:35:10.035Z,20.90
2017-12-06T05:37:37.501Z,22.05
2017-12-06T05:40:04.955Z,16.60
2017-12-06T05:42:32.424Z,24.33
2017-12-06T05:44:59.860Z,17.25
2017-12-06T05:47:27.326Z,21.30
2017-12-06T05:49:55.530Z,22.17
2017-12-06T05:52:23.012Z,24.12
2017-12-06T05:54:50.464Z,20.60
2017-12-06T05:57:18.679Z,20.85
2017-12-06T05:59:46.128Z,19.73
2017-12-06T06:02:14.335Z,21.10
2017-12-06T06:04:42.491Z,20.37
2017-12-06T06:07:09.931Z,18.25
2017-12-06T06:09:37.398Z,15.35
2017-12-06T06:12:05.710Z,18.35
2017-12-06T06:14:33.171Z,22.70
2017-12-06T06:17:01.872Z,20.48
2017-12-06T06:19:29.355Z,17.98
2017-12-06T06:21:56.804Z,19.10
2017-12-06T06:24:25.077Z,20.20
2017-12-06T06:26:53.345Z,22.80
2017-12-06T06:29:20.781Z,22.15
2017-12-06T06:31:48.262Z,21.65
2017-12-06T06:34:15.711Z,21.65
2017-12-06T06:36:43.187Z,21.87
2017-12-06T06:39:10.620Z,23.67
2017-12-06T06:41:38.987Z,33.47
2017-12-06T06:44:06.438Z,24.23
2017-12-06T06:46:33.886Z,22.65
2017-12-06T06:49:02.572Z,24.55
2017-12-06T06:51:30.016Z,20.17
2017-12-06T06:53:57.561Z,19.62
2017-12-06T06:56:25.012Z,22.33
2017-12-06T06:58:53.844Z,16.90
2017-12-06T07:01:21.348Z,19.62
2017-12-06T07:03:48.813Z,20.20
2017-12-06T07:06:18.138Z,19.20
2017-12-06T07:08:45.607Z,19.98
2017-12-06T07:11:13.064Z,17.40
2017-12-06T07:13:40.528Z,22.23
2017-12-06T07:16:07.973Z,18.90
2017-12-06T07:18:35.423Z,23.15
2017-12-06T07:21:02.886Z,22.40
2017-12-06T07:23:30.403Z,17.25
2017-12-06T07:25:58.633Z,20.67
2017-12-06T07:28:26.824Z,20.23
2017-12-06T07:30:54.396Z,20.60
2017-12-06T07:33:21.832Z,22.83
2017-12-06T07:35:49.346Z,27.00
2017-12-06T07:38:16.805Z,18.98
2017-12-06T07:40:45.027Z,19.65
2017-12-06T07:43:12.501Z,18.12
2017-12-06T07:45:40.016Z,19.45
2017-12-06T07:48:07.462Z,20.52
2017-12-06T07:50:34.928Z,17.98
2017-12-06T07:53:06.228Z,19.20
2017-12-06T07:55:33.674Z,16.17
2017-12-06T07:58:01.156Z,17.62
2017-12-06T08:00:28.585Z,17.10
2017-12-06T08:02:58.172Z,18.55
2017-12-06T08:05:25.689Z,18.70
2017-12-06T08:07:53.145Z,17.12
2017-12-06T08:10:21.359Z,18.40
2017-12-06T08:12:53.513Z,20.05
2017-12-06T08:15:21.744Z,17.90
2017-12-06T08:17:49.233Z,21.45
2017-12-06T08:20:16.689Z,18.35
2017-12-06T08:22:44.144Z,17.05
2017-12-06T08:25:11.654Z,15.15
2017-12-06T08:27:39.083Z,15.95
2017-12-06T08:30:07.333Z,17.55
2017-12-06T08:32:34.824Z,15.48
2017-12-06T08:35:02.272Z,20.65
2017-12-06T08:37:29.718Z,25.85
2017-12-06T08:39:57.192Z,20.08
2017-12-06T08:42:25.244Z,17.83
2017-12-06T08:44:52.694Z,25.60
2017-12-06T08:47:20.143Z,17.08
2017-12-06T08:49:47.647Z,20.98
2017-12-06T08:52:15.094Z,19.85
2017-12-06T08:54:44.384Z,17.33
2017-12-06T08:57:12.656Z,14.95
2017-12-06T08:59:40.162Z,13.75
2017-12-06T09:02:08.410Z,15.35
2017-12-06T09:04:35.852Z,19.87
2017-12-06T09:07:04.257Z,18.37
2017-12-06T09:09:31.706Z,16.95
2017-12-06T09:11:59.166Z,18.40
2017-12-06T09:14:27.384Z,17.10
2017-12-06T09:16:54.855Z,19.42
2017-12-06T09:19:22.295Z,16.48
2017-12-06T09:21:49.943Z,17.08
2017-12-06T09:24:17.412Z,15.15
2017-12-06T09:26:44.856Z,19.45
2017-12-06T09:29:12.359Z,14.87
2017-12-06T09:31:39.951Z,18.55
2017-12-06T09:34:07.381Z,16.20
2017-12-06T09:36:34.839Z,20.75
2017-12-06T09:39:03.071Z,14.93
2017-12-06T09:41:30.513Z,16.85
2017-12-06T09:43:58.775Z,16.33
2017-12-06T09:46:26.252Z,16.52
2017-12-06T09:48:53.827Z,16.75
2017-12-06T09:51:21.291Z,17.85
2017-12-06T09:53:48.757Z,13.15
2017-12-06T09:56:16.223Z,13.95
2017-12-06T09:58:43.646Z,14.20
2017-12-06T10:01:11.872Z,13.65
2017-12-06T10:03:39.326Z,15.23
2017-12-06T10:06:06.779Z,13.25
2017-12-06T10:08:34.999Z,12.65
2017-12-06T10:11:03.234Z,13.98
2017-12-06T10:13:30.655Z,14.40
2017-12-06T10:15:58.119Z,16.52
2017-12-06T10:18:26.348Z,16.85
2017-12-06T10:20:53.860Z,14.98
2017-12-06T10:23:21.294Z,20.55
2017-12-06T10:25:48.782Z,15.10
2017-12-06T10:28:16.251Z,15.40
2017-12-06T10:30:43.725Z,15.77
2017-12-06T10:33:11.188Z,16.05
2017-12-06T10:35:38.635Z,20.40
2017-12-06T10:38:06.871Z,16.40
2017-12-06T10:40:34.321Z,16.27
2017-12-06T10:43:02.597Z,12.37
2017-12-06T10:45:30.823Z,15.43
2017-12-06T10:47:58.280Z,14.68
2017-12-06T10:50:25.727Z,18.30
2017-12-06T10:52:53.175Z,28.25
2017-12-06T10:55:20.628Z,18.92
2017-12-06T10:57:48.101Z,18.15
2017-12-06T11:00:15.566Z,24.30
2017-12-06T11:02:43.035Z,21.98
2017-12-06T11:05:10.522Z,22.48
2017-12-06T11:07:37.971Z,22.13
2017-12-06T11:10:06.199Z,19.77
2017-12-06T11:12:33.680Z,22.40
2017-12-06T11:15:01.161Z,25.02
2017-12-06T11:17:28.620Z,30.50
2017-12-06T11:19:56.090Z,21.35
2017-12-06T11:22:23.745Z,31.02
2017-12-06T11:24:51.197Z,29.02
2017-12-06T11:27:18.674Z,23.17
2017-12-06T11:29:46.337Z,26.98
2017-12-06T11:32:13.826Z,23.65
2017-12-06T11:34:41.282Z,24.60
2017-12-06T11:37:08.736Z,26.80
2017-12-06T11:39:36.199Z,22.23
2017-12-06T11:42:03.655Z,24.60
2017-12-06T11:44:31.116Z,22.67
2017-12-06T11:47:00.057Z,23.52
2017-12-06T11:49:27.592Z,23.45
2017-12-06T11:51:55.024Z,19.10
2017-12-06T11:54:22.485Z,27.42
2017-12-06T11:56:49.932Z,19.50
2017-12-06T11:59:18.171Z,25.98
2017-12-06T12:01:45.626Z,23.98
2017-12-06T12:04:13.087Z,23.17
2017-12-06T12:06:40.571Z,20.30
2017-12-06T12:09:08.022Z,22.52
2017-12-06T12:11:36.251Z,19.65
2017-12-06T12:14:03.723Z,24.83
2017-12-06T12:16:31.193Z,22.85
2017-12-06T12:18:58.644Z,25.75
2017-12-06T12:21:26.884Z,24.30
2017-12-06T12:23:54.327Z,26.75
2017-12-06T12:26:21.800Z,24.55
2017-12-06T12:28:49.239Z,27.60
2017-12-06T12:31:17.476Z,25.25
2017-12-06T12:33:44.937Z,26.67
2017-12-06T12:36:12.373Z,25.88
2017-12-06T12:38:39.892Z,23.62
2017-12-06T12:41:07.360Z,26.00
2017-12-06T12:43:35.580Z,27.85
2017-12-06T12:46:03.047Z,26.40
2017-12-06T12:48:30.508Z,26.27
2017-12-06T12:50:58.008Z,28.10
2017-12-06T12:53:25.468Z,29.73
2017-12-06T12:55:52.931Z,26.87
2017-12-06T12:58:20.371Z,24.30
2017-12-06T13:00:55.148Z,27.40
2017-12-06T13:03:22.595Z,27.10
2017-12-06T13:05:50.861Z,25.42
2017-12-06T13:08:18.314Z,24.98
2017-12-06T13:10:45.810Z,23.58
2017-12-06T13:13:13.298Z,23.30
2017-12-06T13:15:40.781Z,24.92
2017-12-06T13:18:08.240Z,32.90
2017-12-06T13:20:35.710Z,25.30
2017-12-06T13:23:03.167Z,29.52
2017-12-06T13:25:30.624Z,28.05
2017-12-06T13:27:58.090Z,25.77
2017-12-06T13:30:25.544Z,25.00
2017-12-06T13:32:53.779Z,27.08
2017-12-06T13:35:21.263Z,24.77
2017-12-06T13:37:48.723Z,26.90
2017-12-06T13:40:16.716Z,28.25
2017-12-06T13:42:44.200Z,24.25
2017-12-06T13:45:11.752Z,31.52
2017-12-06T13:47:39.232Z,24.55
2017-12-06T13:50:06.676Z,26.95
2017-12-06T13:52:34.934Z,28.70
2017-12-06T13:55:02.359Z,29.60
2017-12-06T13:57:29.807Z,24.00
2017-12-06T13:59:57.251Z,28.98
2017-12-06T14:02:24.690Z,26.45
2017-12-06T14:04:52.160Z,33.08
2017-12-06T14:07:19.613Z,31.27
2017-12-06T14:09:47.845Z,32.03
2017-12-06T14:12:15.313Z,27.67
2017-12-06T14:14:42.817Z,32.53
2017-12-06T14:17:10.300Z,29.90
2017-12-06T14:19:37.767Z,29.87
2017-12-06T14:22:05.196Z,27.02
2017-12-06T14:24:32.904Z,30.52
2017-12-06T14:27:00.367Z,31.67
2017-12-06T14:29:27.805Z,26.15
2017-12-06T14:31:56.024Z,28.10
2017-12-06T14:34:23.476Z,29.92
2017-12-06T14:36:51.699Z,29.48
2017-12-06T14:39:19.160Z,28.83
2017-12-06T14:41:46.639Z,27.50
2017-12-06T14:44:14.134Z,23.42
2017-12-06T14:46:41.608Z,33.88
2017-12-06T14:49:09.083Z,27.58
2017-12-06T14:51:36.572Z,30.45
2017-12-06T14:54:04.187Z,26.40
2017-12-06T14:56:31.654Z,24.80
2017-12-06T14:58:59.127Z,24.77
2017-12-06T15:01:26.604Z,31.10
2017-12-06T15:03:54.143Z,25.70
2017-12-06T15:06:21.617Z,29.83
2017-12-06T15:08:49.135Z,29.02
2017-12-06T15:11:16.592Z,29.27
2017-12-06T15:13:44.075Z,27.35
2017-12-06T15:16:11.516Z,29.25
2017-12-06T15:18:38.985Z,25.33
2017-12-06T15:21:06.483Z,42.45
2017-12-06T15:23:33.991Z,25.50
2017-12-06T15:26:02.220Z,25.25
2017-12-06T15:28:30.655Z,28.52
2017-12-06T15:30:58.116Z,27.37
2017-12-06T15:33:25.580Z,28.90
2017-12-06T15:35:53.056Z,21.40
2017-12-06T15:38:20.515Z,28.75
2017-12-06T15:40:49.472Z,26.00
2017-12-06T15:43:16.937Z,27.62
2017-12-06T15:45:44.420Z,26.12
2017-12-06T15:48:12.105Z,31.37
2017-12-06T15:50:39.555Z,27.00
2017-12-06T15:53:07.032Z,24.23
2017-12-06T15:55:34.469Z,26.98
2017-12-06T15:58:01.969Z,27.85
2017-12-06T16:00:29.437Z,28.60
2017-12-06T16:02:57.318Z,26.48
2017-12-06T16:05:24.795Z,30.40
2017-12-06T16:07:52.260Z,28.58
2017-12-06T16:10:19.700Z,24.30
2017-12-06T16:12:47.221Z,31.52
2017-12-06T16:15:14.663Z,23.60
2017-12-06T16:17:42.909Z,27.30
2017-12-06T16:20:10.381Z,28.15
2017-12-06T16:22:37.817Z,22.70
2017-12-06T16:25:05.293Z,22.98
2017-12-06T16:27:32.975Z,27.25
2017-12-06T16:30:00.476Z,22.23
2017-12-06T16:32:27.976Z,27.33
2017-12-06T16:35:16.095Z,24.42
2017-12-06T16:37:43.625Z,22.95
2017-12-06T16:40:11.275Z,23.65
2017-12-06T16:42:38.765Z,22.42
2017-12-06T16:45:06.246Z,24.27
2017-12-06T16:47:33.791Z,23.83
2017-12-06T16:50:01.253Z,23.92
2017-12-06T16:52:28.708Z,25.17
2017-12-06T16:54:56.176Z,25.70
2017-12-06T16:57:23.665Z,22.50
2017-12-06T16:59:51.133Z,24.60
2017-12-06T17:02:18.625Z,22.52
2017-12-06T17:04:46.117Z,24.00
2017-12-06T17:07:13.563Z,25.50
2017-12-06T17:09:41.065Z,27.35
2017-12-06T17:12:08.508Z,25.73
2017-12-06T17:14:35.963Z,27.30
2017-12-06T17:17:03.425Z,24.40
2017-12-06T17:19:30.884Z,26.77
2017-12-06T17:21:58.366Z,24.80
2017-12-06T17:24:25.872Z,23.20
2017-12-06T17:26:53.358Z,22.60
2017-12-06T17:29:32.546Z,25.55
2017-12-06T17:32:00.174Z,24.52
2017-12-06T17:34:28.428Z,22.17
2017-12-06T17:36:56.780Z,26.17
2017-12-06T17:39:24.250Z,33.05
2017-12-06T17:41:51.725Z,25.95
2017-12-06T17:53:59.982Z,24.52
2017-12-06T17:56:27.444Z,27.65
2017-12-06T17:58:56.013Z,25.05
2017-12-06T18:01:27.503Z,26.05
2017-12-06T18:16:46.400Z,23.02
2017-12-06T18:19:15.884Z,25.90
2017-12-06T18:21:43.720Z,23.77
2017-12-06T18:24:12.581Z,21.95
2017-12-06T18:26:40.187Z,24.98
2017-12-06T18:29:07.740Z,25.73
2017-12-06T18:34:08.053Z,25.27
2017-12-06T18:36:35.539Z,25.30
2017-12-06T18:41:38.690Z,29.20
2017-12-06T18:44:06.990Z,24.08
2017-12-06T18:46:35.690Z,32.28
2017-12-06T18:49:03.939Z,27.30
2017-12-06T18:51:31.750Z,24.83
2017-12-06T18:53:59.278Z,25.20
2017-12-06T18:56:27.851Z,24.35
2017-12-06T18:58:55.526Z,28.42
2017-12-06T19:01:25.115Z,27.60
2017-12-06T19:03:52.598Z,22.85
2017-12-06T19:06:21.612Z,31.98
2017-12-06T19:08:49.611Z,29.27
2017-12-06T19:11:18.068Z,24.65
2017-12-06T19:13:45.763Z,29.27
2017-12-06T19:16:13.236Z,24.92
2017-12-06T19:18:40.718Z,23.38
2017-12-06T19:21:11.547Z,27.70
2017-12-06T19:23:39.739Z,24.25
2017-12-06T19:35:47.202Z,29.83
2017-12-06T19:38:14.971Z,24.58
2017-12-06T19:40:42.410Z,20.58
2017-12-06T19:56:03.401Z,25.88
2017-12-06T19:58:33.881Z,24.60
2017-12-06T20:01:04.313Z,24.42
2017-12-06T20:03:32.099Z,26.95
2017-12-06T20:08:34.537Z,24.60
2017-12-06T20:11:02.039Z,24.90
2017-12-06T20:13:31.406Z,27.15
2017-12-06T20:15:59.091Z,23.12
2017-12-06T20:18:31.864Z,23.20
2017-12-06T20:20:59.622Z,28.52
2017-12-06T20:33:07.329Z,25.02
2017-12-06T20:35:40.050Z,25.50
2017-12-06T20:38:08.286Z,31.20
2017-12-06T20:50:17.456Z,28.95
2017-12-06T20:52:45.696Z,26.90
2017-12-06T20:57:46.001Z,27.45
2017-12-06T21:00:14.449Z,24.58
2017-12-06T21:12:22.277Z,25.42
2017-12-06T21:24:31.819Z,25.40
2017-12-06T21:29:32.719Z,25.20
2017-12-06T21:32:01.207Z,22.37
2017-12-06T21:34:29.704Z,26.17
2017-12-06T21:36:57.599Z,23.90
2017-12-06T21:39:25.685Z,22.42
2017-12-06T21:41:53.457Z,24.40
2017-12-06T21:44:23.290Z,25.92
2017-12-06T21:46:50.750Z,26.52
2017-12-06T21:49:18.299Z,23.83
2017-12-06T21:51:45.973Z,24.27
2017-12-06T21:54:13.462Z,26.42
2017-12-06T21:56:40.920Z,19.90
2017-12-06T21:59:08.395Z,23.23
2017-12-06T22:11:17.740Z,23.87
2017-12-06T22:23:26.688Z,23.83
2017-12-06T22:25:54.934Z,22.83
2017-12-06T22:38:03.360Z,24.23
2017-12-06T22:40:30.868Z,24.85
2017-12-06T22:42:58.480Z,23.67
2017-12-06T22:45:26.029Z,24.20
2017-12-06T22:47:53.516Z,23.90
2017-12-06T22:50:21.754Z,25.90
2017-12-06T22:52:49.236Z,23.95
2017-12-06T22:55:16.691Z,26.20
2017-12-06T22:57:44.172Z,25.50
2017-12-06T23:00:11.640Z,24.23
2017-12-06T23:02:39.136Z,22.75
2017-12-06T23:05:06.593Z,26.40
2017-12-06T23:07:34.031Z,20.23
2017-12-06T23:10:02.296Z,27.10
2017-12-06T23:12:29.847Z,22.27
2017-12-06T23:14:57.333Z,26.67
2017-12-06T23:17:24.763Z,30.08
2017-12-06T23:19:52.991Z,26.50
2017-12-06T23:22:20.456Z,26.37
2017-12-06T23:24:47.923Z,25.77
2017-12-06T23:27:15.370Z,23.33
2017-12-06T23:29:43.609Z,26.83
2017-12-06T23:32:11.079Z,26.70
2017-12-06T23:34:38.552Z,24.12
2017-12-06T23:37:05.993Z,24.30
2017-12-06T23:39:34.226Z,27.70
2017-12-06T23:42:01.697Z,27.30
2017-12-06T23:44:30.975Z,31.30
2017-12-06T23:46:59.195Z,25.08
2017-12-06T23:49:26.624Z,23.77
2017-12-06T23:51:54.084Z,25.83
2017-12-06T23:54:21.549Z,26.08
2017-12-06T23:56:49.012Z,22.75
2017-12-06T23:59:17.172Z,27.50
